createdAt,value
2023-05-14T00:00:48.435Z,3.40
2023-05-14T00:03:17.084Z,3.83
2023-05-14T00:05:45.504Z,3.60
2023-05-14T00:08:15.210Z,3.60
2023-05-14T00:10:43.572Z,3.80
2023-05-14T00:13:12.077Z,3.50
2023-05-14T00:15:40.478Z,3.73
2023-05-14T00:18:12.192Z,3.33
2023-05-14T00:20:40.618Z,3.10
2023-05-14T00:23:09.131Z,3.27
2023-05-14T00:25:39.070Z,3.37
2023-05-14T00:28:07.449Z,3.23
2023-05-14T00:30:35.832Z,3.33
2023-05-14T00:33:04.295Z,3.20
2023-05-14T00:35:35.341Z,3.70
2023-05-14T00:38:03.814Z,3.50
2023-05-14T00:40:32.203Z,3.10
2023-05-14T00:43:02.119Z,3.10
2023-05-14T00:45:30.511Z,4.00
2023-05-14T00:47:58.877Z,2.67
2023-05-14T00:50:27.743Z,3.53
2023-05-14T00:52:56.233Z,3.03
2023-05-14T00:55:24.774Z,3.27
2023-05-14T00:57:54.821Z,3.00
2023-05-14T01:00:25.151Z,2.90
2023-05-14T01:02:53.708Z,2.60
2023-05-14T01:05:24.157Z,3.17
2023-05-14T01:08:04.560Z,2.80
2023-05-14T01:10:40.697Z,2.77
2023-05-14T01:13:15.056Z,3.10
2023-05-14T01:15:47.946Z,2.77
2023-05-14T01:18:19.694Z,2.73
2023-05-14T01:20:51.120Z,3.40
2023-05-14T01:23:21.268Z,3.07
2023-05-14T01:25:49.616Z,3.10
2023-05-14T01:28:19.858Z,3.17
2023-05-14T01:30:53.296Z,3.80
2023-05-14T01:33:26.322Z,3.20
2023-05-14T01:35:56.149Z,2.80
2023-05-14T01:38:26.199Z,3.30
2023-05-14T01:40:55.744Z,2.97
2023-05-14T01:43:25.156Z,3.30
2023-05-14T01:45:55.496Z,3.10
2023-05-14T01:48:24.207Z,3.20
2023-05-14T01:50:52.586Z,3.30
2023-05-14T01:53:20.909Z,3.10
2023-05-14T01:55:50.665Z,4.00
2023-05-14T01:58:19.014Z,3.10
2023-05-14T02:00:47.355Z,3.40
2023-05-14T02:03:15.726Z,3.07
2023-05-14T02:05:44.153Z,3.00
2023-05-14T02:08:12.483Z,4.60
2023-05-14T02:10:40.859Z,3.33
2023-05-14T02:13:10.896Z,3.90
2023-05-14T02:15:40.017Z,3.37
2023-05-14T02:18:08.334Z,3.80
2023-05-14T02:20:36.808Z,3.50
2023-05-14T02:23:05.410Z,3.57
2023-05-14T02:25:33.775Z,3.73
2023-05-14T02:28:02.122Z,3.87
2023-05-14T02:30:31.851Z,4.20
2023-05-14T02:33:00.464Z,3.67
2023-05-14T02:35:28.870Z,3.50
2023-05-14T02:37:57.228Z,3.67
2023-05-14T02:40:25.759Z,3.70
2023-05-14T02:42:54.409Z,3.60
2023-05-14T02:45:22.819Z,3.67
2023-05-14T02:47:52.592Z,4.37
2023-05-14T02:50:21.337Z,3.67
2023-05-14T02:52:49.885Z,4.07
2023-05-14T02:55:18.455Z,4.37
2023-05-14T02:57:46.870Z,5.10
2023-05-14T03:00:15.850Z,3.60
2023-05-14T03:02:44.905Z,3.70
2023-05-14T03:05:15.279Z,4.00
2023-05-14T03:07:43.599Z,3.93
2023-05-14T03:10:12.414Z,6.00
2023-05-14T03:12:40.946Z,3.90
2023-05-14T03:15:10.398Z,4.50
2023-05-14T03:17:38.815Z,4.37
2023-05-14T03:20:08.477Z,3.60
2023-05-14T03:22:38.389Z,3.63
2023-05-14T03:25:07.477Z,3.83
2023-05-14T03:27:35.811Z,3.80
2023-05-14T03:30:04.170Z,4.03
2023-05-14T03:32:32.708Z,4.20
2023-05-14T03:35:01.089Z,4.40
2023-05-14T03:37:29.407Z,3.90
2023-05-14T03:39:59.158Z,4.17
2023-05-14T03:42:27.439Z,4.07
2023-05-14T03:44:55.852Z,4.07
2023-05-14T03:47:24.216Z,4.53
2023-05-14T03:49:52.607Z,4.13
2023-05-14T03:52:20.936Z,4.43
2023-05-14T03:54:49.397Z,4.47
2023-05-14T03:57:19.115Z,4.47
2023-05-14T03:59:47.398Z,4.77
2023-05-14T04:02:15.872Z,4.90
2023-05-14T04:04:44.398Z,5.23
2023-05-14T04:07:12.730Z,5.73
2023-05-14T04:09:41.082Z,6.37
2023-05-14T04:12:10.183Z,5.10
2023-05-14T04:14:40.169Z,5.30
2023-05-14T04:17:08.463Z,5.40
2023-05-14T04:19:36.790Z,5.13
2023-05-14T04:22:05.492Z,5.10
2023-05-14T04:24:33.886Z,6.30
2023-05-14T04:27:02.213Z,4.80
2023-05-14T04:29:30.598Z,5.00
2023-05-14T04:32:00.547Z,5.27
2023-05-14T04:34:29.109Z,5.17
2023-05-14T04:36:57.474Z,4.93
2023-05-14T04:39:26.046Z,4.93
2023-05-14T04:41:54.388Z,5.30
2023-05-14T04:44:22.921Z,5.60
2023-05-14T04:46:51.292Z,5.40
2023-05-14T04:49:21.100Z,5.57
2023-05-14T04:51:49.484Z,4.73
2023-05-14T04:54:17.832Z,5.30
2023-05-14T04:56:46.321Z,4.80
2023-05-14T04:59:14.653Z,4.70
2023-05-14T05:01:42.988Z,5.30
2023-05-14T05:04:11.414Z,5.70
2023-05-14T05:06:41.435Z,4.30
2023-05-14T05:09:10.059Z,7.20
2023-05-14T05:11:39.021Z,5.90
2023-05-14T05:14:07.437Z,5.07
2023-05-14T05:16:35.860Z,5.53
2023-05-14T05:19:04.556Z,4.10
2023-05-14T05:21:33.196Z,4.20
2023-05-14T05:24:03.257Z,4.80
2023-05-14T05:26:31.839Z,4.00
2023-05-14T05:29:00.156Z,4.00
2023-05-14T05:31:29.120Z,4.33
2023-05-14T05:33:57.522Z,4.23
2023-05-14T05:36:25.821Z,3.50
2023-05-14T05:38:54.297Z,3.77
2023-05-14T05:41:24.067Z,4.23
2023-05-14T05:43:52.542Z,4.37
2023-05-14T05:46:20.984Z,4.40
2023-05-14T05:48:49.246Z,4.13
2023-05-14T05:51:17.665Z,4.10
2023-05-14T05:53:46.421Z,4.27
2023-05-14T05:56:14.734Z,4.60
2023-05-14T05:58:44.444Z,3.87
2023-05-14T06:01:12.826Z,3.77
2023-05-14T06:03:41.219Z,3.73
2023-05-14T06:06:10.022Z,3.90
2023-05-14T06:08:38.333Z,4.33
2023-05-14T06:11:06.818Z,4.27
2023-05-14T06:13:35.150Z,5.20
2023-05-14T06:16:05.303Z,4.40
2023-05-14T06:18:33.721Z,6.20
2023-05-14T06:21:02.136Z,6.63
2023-05-14T06:23:31.357Z,5.70
2023-05-14T06:25:59.622Z,4.73
2023-05-14T06:28:27.985Z,4.80
2023-05-14T06:30:56.329Z,4.60
2023-05-14T06:33:30.991Z,4.80
2023-05-14T06:36:00.088Z,3.70
2023-05-14T06:38:28.572Z,3.40
2023-05-14T06:40:56.905Z,4.00
2023-05-14T06:43:25.332Z,4.07
2023-05-14T06:45:54.302Z,4.57
2023-05-14T06:48:22.947Z,4.37
2023-05-14T06:50:52.727Z,4.70
2023-05-14T06:53:21.196Z,4.17
2023-05-14T06:55:49.716Z,4.17
2023-05-14T06:58:17.960Z,3.60
2023-05-14T07:00:46.915Z,4.10
2023-05-14T07:03:15.307Z,5.07
2023-05-14T07:05:45.084Z,4.50
2023-05-14T07:08:14.930Z,4.70
2023-05-14T07:10:43.341Z,4.13
2023-05-14T07:13:11.632Z,5.03
2023-05-14T07:15:39.982Z,4.50
2023-05-14T07:18:08.285Z,3.87
2023-05-14T07:20:36.650Z,4.30
2023-05-14T07:23:05.089Z,4.60
2023-05-14T07:25:34.872Z,4.27
2023-05-14T07:28:03.281Z,4.50
2023-05-14T07:30:31.718Z,4.40
2023-05-14T07:33:00.212Z,3.53
2023-05-14T07:35:28.622Z,4.50
2023-05-14T07:37:57.024Z,4.00
2023-05-14T07:40:26.400Z,4.10
2023-05-14T07:42:56.464Z,4.20
2023-05-14T07:45:24.907Z,3.97
2023-05-14T07:47:53.421Z,4.30
2023-05-14T07:50:22.407Z,4.23
2023-05-14T07:52:50.964Z,4.20
2023-05-14T07:55:19.538Z,3.60
2023-05-14T07:57:47.831Z,3.63
2023-05-14T08:00:18.140Z,4.60
2023-05-14T08:02:46.728Z,3.60
2023-05-14T08:05:15.441Z,4.40
2023-05-14T08:07:43.780Z,4.03
2023-05-14T08:10:12.678Z,4.50
2023-05-14T08:12:41.236Z,4.00
2023-05-14T08:15:10.760Z,3.90
2023-05-14T08:17:40.642Z,3.60
2023-05-14T08:20:10.427Z,5.17
2023-05-14T08:22:38.689Z,4.40
2023-05-14T08:25:07.939Z,3.60
2023-05-14T08:27:36.371Z,4.57
2023-05-14T08:30:05.447Z,4.33
2023-05-14T08:32:33.790Z,3.83
2023-05-14T08:35:03.586Z,3.97
2023-05-14T08:37:32.086Z,4.70
2023-05-14T08:40:00.449Z,4.13
2023-05-14T08:42:30.495Z,3.90
2023-05-14T08:45:02.549Z,3.70
2023-05-14T08:47:32.083Z,3.67
2023-05-14T08:50:05.206Z,3.60
2023-05-14T08:52:36.095Z,3.30
2023-05-14T08:55:07.098Z,3.47
2023-05-14T08:57:36.017Z,3.30
2023-05-14T09:00:08.503Z,3.20
2023-05-14T09:02:38.105Z,3.50
2023-05-14T09:05:09.362Z,3.20
2023-05-14T09:07:37.852Z,3.47
2023-05-14T09:10:07.041Z,3.50
2023-05-14T09:12:36.539Z,3.43
2023-05-14T09:15:05.435Z,3.63
2023-05-14T09:17:35.961Z,3.70
2023-05-14T09:20:06.307Z,3.60
2023-05-14T09:22:36.466Z,3.50
2023-05-14T09:25:06.372Z,3.53
2023-05-14T09:27:35.305Z,3.90
2023-05-14T09:30:11.863Z,4.47
2023-05-14T09:32:42.685Z,4.93
2023-05-14T09:35:12.832Z,3.80
2023-05-14T09:37:45.011Z,3.50
2023-05-14T09:40:14.058Z,4.47
2023-05-14T09:42:42.684Z,4.20
2023-05-14T09:45:12.308Z,4.10
2023-05-14T09:47:41.151Z,4.50
2023-05-14T09:50:11.072Z,4.30
2023-05-14T09:52:39.992Z,4.60
2023-05-14T09:55:10.704Z,4.57
2023-05-14T09:57:39.224Z,5.17
2023-05-14T10:00:10.329Z,4.97
2023-05-14T10:02:41.393Z,4.33
2023-05-14T10:05:10.654Z,4.17
2023-05-14T10:07:42.974Z,4.90
2023-05-14T10:10:19.058Z,4.60
2023-05-14T10:12:53.295Z,4.20
2023-05-14T10:15:25.284Z,4.30
2023-05-14T10:18:00.620Z,3.90
2023-05-14T10:20:29.821Z,4.90
2023-05-14T10:22:59.680Z,5.10
2023-05-14T10:25:29.496Z,5.50
2023-05-14T10:27:58.608Z,5.00
2023-05-14T10:30:27.303Z,4.60
2023-05-14T10:33:09.502Z,5.40
2023-05-14T10:35:56.865Z,4.97
2023-05-14T10:38:27.404Z,5.10
2023-05-14T10:41:05.415Z,4.60
2023-05-14T10:43:39.407Z,4.83
2023-05-14T10:46:09.018Z,5.20
2023-05-14T10:48:38.873Z,4.93
2023-05-14T10:51:10.437Z,5.80
2023-05-14T10:53:39.854Z,5.90
2023-05-14T10:56:11.510Z,5.00
2023-05-14T10:58:41.368Z,5.53
2023-05-14T11:01:11.607Z,4.60
2023-05-14T11:03:45.177Z,4.77
2023-05-14T11:06:15.294Z,5.90
2023-05-14T11:08:44.048Z,5.07
2023-05-14T11:11:14.272Z,4.77
2023-05-14T11:13:44.127Z,4.80
2023-05-14T11:16:22.589Z,4.33
2023-05-14T11:19:02.358Z,4.90
2023-05-14T11:21:31.978Z,5.67
2023-05-14T11:24:01.864Z,4.43
2023-05-14T11:26:33.326Z,4.80
2023-05-14T11:29:02.120Z,4.30
2023-05-14T11:31:30.604Z,4.33
2023-05-14T11:33:59.147Z,4.30
2023-05-14T11:36:27.667Z,4.80
2023-05-14T11:38:56.106Z,4.47
2023-05-14T11:41:24.857Z,4.37
2023-05-14T11:43:54.629Z,4.33
2023-05-14T11:46:24.035Z,4.80
2023-05-14T11:48:53.359Z,4.30
2023-05-14T11:51:23.288Z,4.37
2023-05-14T11:53:51.851Z,6.77
2023-05-14T11:56:21.444Z,6.73
2023-05-14T11:58:51.247Z,6.67
2023-05-14T12:01:20.955Z,4.10
2023-05-14T12:03:49.568Z,4.50
2023-05-14T12:06:19.646Z,4.80
2023-05-14T12:08:49.688Z,4.33
2023-05-14T12:11:22.768Z,4.57
2023-05-14T12:13:51.317Z,4.17
2023-05-14T12:16:22.398Z,5.43
2023-05-14T12:18:50.940Z,3.70
2023-05-14T12:21:19.797Z,4.13
2023-05-14T12:23:48.323Z,4.00
2023-05-14T12:26:16.636Z,4.23
2023-05-14T12:28:49.337Z,3.97
2023-05-14T12:31:17.682Z,3.80
2023-05-14T12:33:47.362Z,4.07
2023-05-14T12:38:48.786Z,4.00
2023-05-14T12:41:17.438Z,4.50
2023-05-14T12:43:46.189Z,4.50
2023-05-14T12:46:14.657Z,4.00
2023-05-14T12:48:43.054Z,4.50
2023-05-14T12:51:13.075Z,4.33
2023-05-14T12:53:41.424Z,4.07
2023-05-14T12:56:10.105Z,4.20
2023-05-14T12:58:38.733Z,4.63
2023-05-14T13:01:07.750Z,4.37
2023-05-14T13:03:36.445Z,4.13
2023-05-14T13:06:05.087Z,4.60
2023-05-14T13:08:35.529Z,4.00
2023-05-14T13:11:04.274Z,4.20
2023-05-14T13:13:32.685Z,4.60
2023-05-14T13:16:01.114Z,3.77
2023-05-14T13:18:31.662Z,3.63
2023-05-14T13:21:00.028Z,4.10
2023-05-14T13:23:28.366Z,4.40
2023-05-14T13:25:58.799Z,4.83
2023-05-14T13:28:27.198Z,3.97
2023-05-14T13:31:10.941Z,4.00
2023-05-14T13:33:42.817Z,4.67
2023-05-14T13:36:12.054Z,3.80
2023-05-14T13:38:40.655Z,4.10
2023-05-14T13:41:10.600Z,4.20
2023-05-14T13:43:39.204Z,3.90
2023-05-14T13:46:07.839Z,4.20
2023-05-14T13:48:37.446Z,3.80
2023-05-14T13:51:05.895Z,4.80
2023-05-14T13:53:34.225Z,3.93
2023-05-14T13:56:02.685Z,4.40
2023-05-14T13:58:32.508Z,4.20
2023-05-14T14:01:01.003Z,3.90
2023-05-14T14:03:29.503Z,4.73
2023-05-14T14:05:57.840Z,3.90
2023-05-14T14:08:26.561Z,3.67
2023-05-14T14:10:56.059Z,3.77
2023-05-14T14:13:24.688Z,4.17
2023-05-14T14:15:54.763Z,4.23
2023-05-14T14:18:23.100Z,4.57
2023-05-14T14:20:51.533Z,3.90
2023-05-14T14:23:19.825Z,4.07
2023-05-14T14:25:48.217Z,3.60
2023-05-14T14:28:16.751Z,4.13
2023-05-14T14:30:45.180Z,4.07
2023-05-14T14:33:15.045Z,4.20
2023-05-14T14:35:43.750Z,3.77
2023-05-14T14:38:12.581Z,4.40
2023-05-14T14:40:40.877Z,4.20
2023-05-14T14:43:09.371Z,4.50
2023-05-14T14:45:37.772Z,5.97
2023-05-14T14:48:27.943Z,5.00
2023-05-14T14:54:07.273Z,4.70
2023-05-14T14:56:35.925Z,4.57
2023-05-14T14:59:04.254Z,3.80
2023-05-14T15:01:32.627Z,4.50
2023-05-14T15:04:01.017Z,4.30
2023-05-14T15:06:29.565Z,4.27
2023-05-14T15:08:57.920Z,4.20
2023-05-14T15:11:28.975Z,4.80
2023-05-14T15:13:57.576Z,4.13
2023-05-14T15:16:26.169Z,5.00
2023-05-14T15:18:54.560Z,4.50
2023-05-14T15:21:23.166Z,4.90
2023-05-14T15:23:51.568Z,4.67
2023-05-14T15:26:20.111Z,6.60
2023-05-14T15:28:50.045Z,15.20
2023-05-14T15:31:18.603Z,6.83
2023-05-14T15:33:47.026Z,8.10
2023-05-14T15:36:15.372Z,4.80
2023-05-14T15:38:43.718Z,5.83
2023-05-14T15:41:12.172Z,5.33
2023-05-14T15:43:40.522Z,4.60
2023-05-14T15:46:10.428Z,5.70
2023-05-14T15:48:38.959Z,5.00
2023-05-14T15:51:07.468Z,5.33
2023-05-14T15:53:35.904Z,5.40
2023-05-14T15:56:04.665Z,5.00
2023-05-14T15:58:33.062Z,5.83
2023-05-14T16:01:01.616Z,5.80
2023-05-14T16:03:31.398Z,5.87
2023-05-14T16:06:00.025Z,5.80
2023-05-14T16:08:28.775Z,6.83
2023-05-14T16:10:57.199Z,5.80
2023-05-14T16:13:25.571Z,6.63
2023-05-14T16:15:54.093Z,5.80
2023-05-14T16:18:22.598Z,5.37
2023-05-14T16:20:53.557Z,5.60
2023-05-14T16:23:22.022Z,5.70
2023-05-14T16:25:50.380Z,5.20
2023-05-14T16:28:19.172Z,5.70
2023-05-14T16:30:47.737Z,5.67
2023-05-14T16:33:16.503Z,5.60
2023-05-14T16:35:45.564Z,5.67
2023-05-14T16:38:15.329Z,5.27
2023-05-14T16:40:43.797Z,4.80
2023-05-14T16:43:12.319Z,5.40
2023-05-14T16:45:41.312Z,5.40
2023-05-14T16:48:09.660Z,5.10
2023-05-14T16:50:38.260Z,5.30
2023-05-14T16:53:06.648Z,5.43
2023-05-14T16:55:36.400Z,5.40
2023-05-14T16:58:04.713Z,5.77
2023-05-14T17:00:33.135Z,5.60
2023-05-14T17:03:02.493Z,5.10
2023-05-14T17:05:31.064Z,5.47
2023-05-14T17:07:59.428Z,5.10
2023-05-14T17:10:30.311Z,5.00
2023-05-14T17:13:00.320Z,4.73
2023-05-14T17:15:28.769Z,5.40
2023-05-14T17:17:57.504Z,5.90
2023-05-14T17:20:27.267Z,5.50
2023-05-14T17:22:55.648Z,6.90
2023-05-14T17:25:26.459Z,5.00
2023-05-14T17:27:55.098Z,5.80
2023-05-14T17:30:27.036Z,5.93
2023-05-14T17:32:55.460Z,5.93
2023-05-14T17:35:24.146Z,5.90
2023-05-14T17:37:52.681Z,5.30
2023-05-14T17:40:21.464Z,5.80
2023-05-14T17:42:49.844Z,5.90
2023-05-14T17:45:20.844Z,5.90
2023-05-14T17:47:52.099Z,15.40
2023-05-14T17:50:21.101Z,10.37
2023-05-14T17:52:49.467Z,11.87
2023-05-14T17:55:19.357Z,7.90
2023-05-14T17:57:47.882Z,6.37
2023-05-14T18:00:16.765Z,5.57
2023-05-14T18:02:45.229Z,5.27
2023-05-14T18:05:15.067Z,5.43
2023-05-14T18:07:43.496Z,5.33
2023-05-14T18:10:12.193Z,5.60
2023-05-14T18:12:40.531Z,5.37
2023-05-14T18:15:09.811Z,5.90
2023-05-14T18:17:38.176Z,5.87
2023-05-14T18:20:09.156Z,5.87
2023-05-14T18:22:39.096Z,5.50
2023-05-14T18:25:09.630Z,6.00
2023-05-14T18:27:44.461Z,5.77
2023-05-14T18:30:14.719Z,5.80
2023-05-14T18:32:44.155Z,5.50
2023-05-14T18:35:14.158Z,5.40
2023-05-14T18:37:43.926Z,5.50
2023-05-14T18:40:16.886Z,5.33
2023-05-14T18:42:46.804Z,5.37
2023-05-14T18:45:15.268Z,6.10
2023-05-14T18:47:43.847Z,6.20
2023-05-14T18:50:12.745Z,5.07
2023-05-14T18:52:41.241Z,6.40
2023-05-14T18:55:11.433Z,6.50
2023-05-14T18:57:39.773Z,6.10
2023-05-14T19:00:09.472Z,6.27
2023-05-14T19:02:38.988Z,6.33
2023-05-14T19:05:08.422Z,6.60
2023-05-14T19:07:38.067Z,6.23
2023-05-14T19:10:07.939Z,5.57
2023-05-14T19:12:37.721Z,6.13
2023-05-14T19:15:07.044Z,7.50
2023-05-14T19:17:35.524Z,7.13
2023-05-14T19:20:04.657Z,6.77
2023-05-14T19:22:33.201Z,6.00
2023-05-14T19:25:01.632Z,6.13
2023-05-14T19:27:30.265Z,6.10
2023-05-14T19:29:59.974Z,5.80
2023-05-14T19:32:28.319Z,6.30
2023-05-14T19:34:56.791Z,6.10
2023-05-14T19:37:26.301Z,5.20
2023-05-14T19:39:54.587Z,5.90
2023-05-14T19:42:22.969Z,5.67
2023-05-14T19:44:51.463Z,6.20
2023-05-14T19:47:21.358Z,5.50
2023-05-14T19:49:49.700Z,6.30
2023-05-14T19:52:18.063Z,5.83
2023-05-14T19:54:46.396Z,5.53
2023-05-14T19:57:14.771Z,6.17
2023-05-14T19:59:44.529Z,6.27
2023-05-14T20:02:18.593Z,6.20
2023-05-14T20:04:48.571Z,6.60
2023-05-14T20:07:17.294Z,5.90
2023-05-14T20:09:46.549Z,5.90
2023-05-14T20:12:14.878Z,6.30
2023-05-14T20:14:43.626Z,5.63
2023-05-14T20:17:12.177Z,6.60
2023-05-14T20:19:41.338Z,6.50
2023-05-14T20:22:11.405Z,6.30
2023-05-14T20:24:41.262Z,6.00
2023-05-14T20:27:09.701Z,7.10
2023-05-14T20:29:37.980Z,6.63
2023-05-14T20:32:07.380Z,7.20
2023-05-14T20:34:35.667Z,7.30
2023-05-14T20:37:05.565Z,6.37
2023-05-14T20:39:35.424Z,6.80
2023-05-14T20:42:03.919Z,6.07
2023-05-14T20:44:32.278Z,6.83
2023-05-14T20:47:00.793Z,6.03
2023-05-14T20:49:29.525Z,6.60
2023-05-14T20:51:57.889Z,7.07
2023-05-14T20:54:26.270Z,6.00
2023-05-14T20:56:56.020Z,5.87
2023-05-14T20:59:24.572Z,6.43
2023-05-14T21:01:52.937Z,6.20
2023-05-14T21:04:21.421Z,5.57
2023-05-14T21:06:50.063Z,5.47
2023-05-14T21:09:18.345Z,6.13
2023-05-14T21:11:46.799Z,6.40
2023-05-14T21:14:16.639Z,6.50
2023-05-14T21:16:45.195Z,6.87
2023-05-14T21:19:15.349Z,6.90
2023-05-14T21:21:44.172Z,7.53
2023-05-14T21:24:12.451Z,6.50
2023-05-14T21:26:41.464Z,5.83
2023-05-14T21:29:09.878Z,6.63
2023-05-14T21:31:39.753Z,5.83
2023-05-14T21:34:08.201Z,5.40
2023-05-14T21:36:36.970Z,6.07
2023-05-14T21:39:05.596Z,5.63
2023-05-14T21:41:33.997Z,5.63
2023-05-14T21:44:02.304Z,5.80
2023-05-14T21:46:30.752Z,5.80
2023-05-14T21:49:00.526Z,5.97
2023-05-14T21:51:29.072Z,5.63
2023-05-14T21:53:57.373Z,6.77
2023-05-14T21:56:26.431Z,6.43
2023-05-14T21:58:56.194Z,5.83
2023-05-14T22:01:24.567Z,6.60
2023-05-14T22:03:53.641Z,5.93
2023-05-14T22:06:24.360Z,5.83
2023-05-14T22:08:52.716Z,6.17
2023-05-14T22:11:21.971Z,5.60
2023-05-14T22:13:50.542Z,5.57
2023-05-14T22:16:18.953Z,5.67
2023-05-14T22:18:47.392Z,5.83
2023-05-14T22:21:15.750Z,5.67
2023-05-14T22:23:45.653Z,5.70
2023-05-14T22:26:13.995Z,4.90
2023-05-14T22:28:43.200Z,5.17
2023-05-14T22:31:11.806Z,5.47
2023-05-14T22:33:40.171Z,4.87
2023-05-14T22:36:08.946Z,5.43
2023-05-14T22:38:37.228Z,5.07
2023-05-14T22:41:07.035Z,4.97
2023-05-14T22:43:35.496Z,5.20
2023-05-14T22:46:03.833Z,4.10
2023-05-14T22:48:32.196Z,4.90
2023-05-14T22:51:00.734Z,4.13
2023-05-14T22:53:29.057Z,4.73
2023-05-14T22:55:57.398Z,4.83
2023-05-14T22:58:27.333Z,5.07
2023-05-14T23:00:55.628Z,4.50
2023-05-14T23:03:23.924Z,4.80
2023-05-14T23:05:52.937Z,4.90
2023-05-14T23:08:21.226Z,4.90
2023-05-14T23:10:49.748Z,5.17
2023-05-14T23:13:19.277Z,4.63
2023-05-14T23:15:49.055Z,4.80
2023-05-14T23:18:17.539Z,5.07
2023-05-14T23:20:45.998Z,5.13
2023-05-14T23:23:14.381Z,5.00
2023-05-14T23:25:42.938Z,4.63
2023-05-14T23:28:11.424Z,4.90
2023-05-14T23:30:39.761Z,4.60
2023-05-14T23:33:09.535Z,5.33
2023-05-14T23:35:39.711Z,5.10
2023-05-14T23:38:08.392Z,5.40
2023-05-14T23:40:36.937Z,5.40
2023-05-14T23:43:05.308Z,5.30
2023-05-14T23:45:33.951Z,5.07
2023-05-14T23:48:03.597Z,5.57
2023-05-14T23:50:33.561Z,5.50
2023-05-14T23:53:02.162Z,5.60
2023-05-14T23:55:30.639Z,5.50
2023-05-14T23:57:59.093Z,5.23
